sensor_id;sensor_type;location;lat;lon;timestamp;pressure;altitude;pressure_sealevel;temperature;humidity
3294;BME280;1659;51.470;6.770;2023-07-09T00:00:17;101494.63;;;25.40;45.65
3294;BME280;1659;51.470;6.770;2023-07-09T00:02:44;101484.09;;;25.35;45.77
3294;BME280;1659;51.470;6.770;2023-07-09T00:05:13;101484.56;;;25.29;46.24
3294;BME280;1659;51.470;6.770;2023-07-09T00:07:41;101484.75;;;25.26;46.01
3294;BME280;1659;51.470;6.770;2023-07-09T00:10:16;101475.09;;;25.22;46.35
3294;BME280;1659;51.470;6.770;2023-07-09T00:12:42;101478.97;;;25.18;46.40
3294;BME280;1659;51.470;6.770;2023-07-09T00:15:11;101472.06;;;25.14;46.50
3294;BME280;1659;51.470;6.770;2023-07-09T00:17:39;101477.66;;;25.11;46.64
3294;BME280;1659;51.470;6.770;2023-07-09T00:20:09;101476.16;;;25.06;46.68
3294;BME280;1659;51.470;6.770;2023-07-09T00:22:38;101474.41;;;25.05;47.07
3294;BME280;1659;51.470;6.770;2023-07-09T00:25:07;101475.59;;;25.01;46.97
3294;BME280;1659;51.470;6.770;2023-07-09T00:27:33;101474.09;;;24.97;47.24
3294;BME280;1659;51.470;6.770;2023-07-09T00:30:00;101477.00;;;24.94;47.59
3294;BME280;1659;51.470;6.770;2023-07-09T00:32:27;101470.94;;;24.91;47.64
3294;BME280;1659;51.470;6.770;2023-07-09T00:34:55;101467.47;;;24.88;47.83
3294;BME280;1659;51.470;6.770;2023-07-09T00:37:24;101473.94;;;24.86;47.84
3294;BME280;1659;51.470;6.770;2023-07-09T00:39:51;101469.63;;;24.83;47.79
3294;BME280;1659;51.470;6.770;2023-07-09T00:42:20;101462.47;;;24.82;48.27
3294;BME280;1659;51.470;6.770;2023-07-09T00:44:51;101466.38;;;24.78;47.96
3294;BME280;1659;51.470;6.770;2023-07-09T00:47:23;101461.16;;;24.75;48.41
3294;BME280;1659;51.470;6.770;2023-07-09T00:49:59;101468.50;;;24.73;48.15
3294;BME280;1659;51.470;6.770;2023-07-09T00:52:33;101458.75;;;24.71;48.31
3294;BME280;1659;51.470;6.770;2023-07-09T00:55:05;101464.16;;;24.71;48.40
3294;BME280;1659;51.470;6.770;2023-07-09T00:57:34;101459.84;;;24.68;48.80
3294;BME280;1659;51.470;6.770;2023-07-09T01:00:06;101466.31;;;24.65;48.74
3294;BME280;1659;51.470;6.770;2023-07-09T01:02:35;101468.16;;;24.65;48.78
3294;BME280;1659;51.470;6.770;2023-07-09T01:05:04;101462.75;;;24.65;48.76
3294;BME280;1659;51.470;6.770;2023-07-09T01:07:31;101469.13;;;24.64;48.75
3294;BME280;1659;51.470;6.770;2023-07-09T01:09:58;101466.53;;;24.62;48.86
3294;BME280;1659;51.470;6.770;2023-07-09T01:12:25;101468.44;;;24.60;49.03
3294;BME280;1659;51.470;6.770;2023-07-09T01:14:53;101468.59;;;24.59;49.13
3294;BME280;1659;51.470;6.770;2023-07-09T01:17:24;101467.69;;;24.58;49.25
3294;BME280;1659;51.470;6.770;2023-07-09T01:19:52;101475.91;;;24.57;49.16
3294;BME280;1659;51.470;6.770;2023-07-09T01:22:21;101468.03;;;24.54;49.14
3294;BME280;1659;51.470;6.770;2023-07-09T01:24:54;101470.03;;;24.50;49.21
3294;BME280;1659;51.470;6.770;2023-07-09T01:27:26;101473.78;;;24.47;49.24
3294;BME280;1659;51.470;6.770;2023-07-09T01:29:54;101464.25;;;24.42;49.42
3294;BME280;1659;51.470;6.770;2023-07-09T01:32:21;101479.81;;;24.38;49.53
3294;BME280;1659;51.470;6.770;2023-07-09T01:34:54;101480.09;;;24.34;49.84
3294;BME280;1659;51.470;6.770;2023-07-09T01:37:24;101467.78;;;24.29;49.69
3294;BME280;1659;51.470;6.770;2023-07-09T01:39:52;101475.13;;;24.27;49.84
3294;BME280;1659;51.470;6.770;2023-07-09T01:42:21;101469.03;;;24.24;49.94
3294;BME280;1659;51.470;6.770;2023-07-09T01:44:48;101477.34;;;24.21;50.35
3294;BME280;1659;51.470;6.770;2023-07-09T01:47:15;101477.53;;;24.18;50.39
3294;BME280;1659;51.470;6.770;2023-07-09T01:49:42;101474.06;;;24.16;50.39
3294;BME280;1659;51.470;6.770;2023-07-09T01:52:13;101474.16;;;24.14;50.52
3294;BME280;1659;51.470;6.770;2023-07-09T01:54:42;101475.13;;;24.13;50.46
3294;BME280;1659;51.470;6.770;2023-07-09T01:57:16;101478.91;;;24.10;50.57
3294;BME280;1659;51.470;6.770;2023-07-09T01:59:45;101480.94;;;24.07;50.52
3294;BME280;1659;51.470;6.770;2023-07-09T02:02:12;101476.56;;;24.04;51.00
3294;BME280;1659;51.470;6.770;2023-07-09T02:04:44;101483.06;;;24.02;51.05
3294;BME280;1659;51.470;6.770;2023-07-09T02:07:11;101477.84;;;23.99;51.19
3294;BME280;1659;51.470;6.770;2023-07-09T02:09:37;101478.03;;;23.96;51.29
3294;BME280;1659;51.470;6.770;2023-07-09T02:12:06;101477.19;;;23.95;51.42
3294;BME280;1659;51.470;6.770;2023-07-09T02:14:33;101481.81;;;23.93;51.30
3294;BME280;1659;51.470;6.770;2023-07-09T02:16:59;101473.03;;;23.89;51.40
3294;BME280;1659;51.470;6.770;2023-07-09T02:19:27;101480.47;;;23.86;51.45
3294;BME280;1659;51.470;6.770;2023-07-09T02:21:54;101478.81;;;23.83;51.80
3294;BME280;1659;51.470;6.770;2023-07-09T02:24:20;101472.66;;;23.81;51.89
3294;BME280;1659;51.470;6.770;2023-07-09T02:26:49;101475.50;;;23.78;51.97
3294;BME280;1659;51.470;6.770;2023-07-09T02:29:17;101478.34;;;23.77;52.06
3294;BME280;1659;51.470;6.770;2023-07-09T02:31:44;101477.66;;;23.73;51.95
3294;BME280;1659;51.470;6.770;2023-07-09T02:34:11;101482.25;;;23.71;52.11
3294;BME280;1659;51.470;6.770;2023-07-09T02:36:38;101480.81;;;23.65;52.15
3294;BME280;1659;51.470;6.770;2023-07-09T02:39:08;101478.41;;;23.61;52.43
3294;BME280;1659;51.470;6.770;2023-07-09T02:41:34;101477.84;;;23.55;52.52
3294;BME280;1659;51.470;6.770;2023-07-09T02:44:01;101477.28;;;23.50;52.75
3294;BME280;1659;51.470;6.770;2023-07-09T02:46:29;101486.59;;;23.45;52.77
3294;BME280;1659;51.470;6.770;2023-07-09T02:48:55;101485.06;;;23.41;53.06
3294;BME280;1659;51.470;6.770;2023-07-09T02:51:23;101494.38;;;23.35;53.02
3294;BME280;1659;51.470;6.770;2023-07-09T02:53:52;101492.81;;;23.31;53.33
3294;BME280;1659;51.470;6.770;2023-07-09T02:56:19;101488.59;;;23.27;53.47
3294;BME280;1659;51.470;6.770;2023-07-09T02:58:46;101485.22;;;23.23;53.58
3294;BME280;1659;51.470;6.770;2023-07-09T03:01:13;101492.63;;;23.19;53.70
3294;BME280;1659;51.470;6.770;2023-07-09T03:03:41;101494.63;;;23.16;53.75
3294;BME280;1659;51.470;6.770;2023-07-09T03:06:08;101491.25;;;23.12;54.05
3294;BME280;1659;51.470;6.770;2023-07-09T03:08:35;101501.97;;;23.14;54.11
3294;BME280;1659;51.470;6.770;2023-07-09T03:11:09;101504.75;;;23.12;54.38
3294;BME280;1659;51.470;6.770;2023-07-09T03:13:35;101497.59;;;23.11;54.46
3294;BME280;1659;51.470;6.770;2023-07-09T03:16:02;101504.81;;;23.11;54.49
3294;BME280;1659;51.470;6.770;2023-07-09T03:18:29;101509.28;;;23.12;54.77
3294;BME280;1659;51.470;6.770;2023-07-09T03:20:57;101502.13;;;23.11;54.61
3294;BME280;1659;51.470;6.770;2023-07-09T03:23:24;101500.28;;;23.11;54.78
3294;BME280;1659;51.470;6.770;2023-07-09T03:25:50;101511.16;;;23.10;54.77
3294;BME280;1659;51.470;6.770;2023-07-09T03:28:17;101512.06;;;23.10;54.71
3294;BME280;1659;51.470;6.770;2023-07-09T03:30:45;101518.41;;;23.09;55.03
3294;BME280;1659;51.470;6.770;2023-07-09T03:33:13;101521.31;;;23.05;54.96
3294;BME280;1659;51.470;6.770;2023-07-09T03:35:40;101521.63;;;23.00;55.12
3294;BME280;1659;51.470;6.770;2023-07-09T03:38:09;101516.41;;;22.97;55.33
3294;BME280;1659;51.470;6.770;2023-07-09T03:40:36;101525.63;;;22.93;55.41
3294;BME280;1659;51.470;6.770;2023-07-09T03:43:04;101531.19;;;22.90;55.50
3294;BME280;1659;51.470;6.770;2023-07-09T03:45:31;101533.28;;;22.85;55.62
3294;BME280;1659;51.470;6.770;2023-07-09T03:47:58;101527.13;;;22.83;55.82
3294;BME280;1659;51.470;6.770;2023-07-09T03:50:25;101528.94;;;22.82;55.99
3294;BME280;1659;51.470;6.770;2023-07-09T03:52:52;101528.06;;;22.81;56.04
3294;BME280;1659;51.470;6.770;2023-07-09T03:55:20;101531.75;;;22.80;55.99
3294;BME280;1659;51.470;6.770;2023-07-09T03:57:47;101528.16;;;22.80;56.05
3294;BME280;1659;51.470;6.770;2023-07-09T04:00:14;101537.13;;;22.80;56.12
3294;BME280;1659;51.470;6.770;2023-07-09T04:02:40;101540.78;;;22.79;56.19
3294;BME280;1659;51.470;6.770;2023-07-09T04:05:09;101536.25;;;22.80;56.38
3294;BME280;1659;51.470;6.770;2023-07-09T04:07:36;101534.53;;;22.79;56.31
3294;BME280;1659;51.470;6.770;2023-07-09T04:10:03;101531.75;;;22.80;56.23
3294;BME280;1659;51.470;6.770;2023-07-09T04:12:31;101529.81;;;22.83;56.32
3294;BME280;1659;51.470;6.770;2023-07-09T04:14:58;101527.91;;;22.85;56.38
3294;BME280;1659;51.470;6.770;2023-07-09T04:17:25;101534.84;;;22.89;56.19
3294;BME280;1659;51.470;6.770;2023-07-09T04:19:52;101525.72;;;22.91;56.33
3294;BME280;1659;51.470;6.770;2023-07-09T04:22:19;101526.41;;;22.95;56.22
3294;BME280;1659;51.470;6.770;2023-07-09T04:24:46;101527.19;;;22.97;56.34
3294;BME280;1659;51.470;6.770;2023-07-09T04:27:13;101529.63;;;23.02;56.28
3294;BME280;1659;51.470;6.770;2023-07-09T04:29:42;101533.88;;;23.06;56.36
3294;BME280;1659;51.470;6.770;2023-07-09T04:32:12;101528.41;;;23.07;56.36
3294;BME280;1659;51.470;6.770;2023-07-09T04:34:40;101530.84;;;23.12;56.40
3294;BME280;1659;51.470;6.770;2023-07-09T04:37:07;101522.47;;;23.16;56.35
3294;BME280;1659;51.470;6.770;2023-07-09T04:39:35;101531.13;;;23.22;56.18
3294;BME280;1659;51.470;6.770;2023-07-09T04:42:02;101521.03;;;23.25;56.23
3294;BME280;1659;51.470;6.770;2023-07-09T04:44:28;101512.78;;;23.28;56.28
3294;BME280;1659;51.470;6.770;2023-07-09T04:46:56;101523.28;;;23.33;56.09
3294;BME280;1659;51.470;6.770;2023-07-09T04:49:23;101516.66;;;23.38;56.11
3294;BME280;1659;51.470;6.770;2023-07-09T04:51:49;101526.19;;;23.44;56.19
3294;BME280;1659;51.470;6.770;2023-07-09T04:54:16;101525.81;;;23.50;56.10
3294;BME280;1659;51.470;6.770;2023-07-09T04:56:43;101528.13;;;23.56;55.97
3294;BME280;1659;51.470;6.770;2023-07-09T04:59:10;101531.41;;;23.62;55.80
3294;BME280;1659;51.470;6.770;2023-07-09T05:01:36;101522.97;;;23.68;55.86
3294;BME280;1659;51.470;6.770;2023-07-09T05:04:04;101525.16;;;23.75;55.90
3294;BME280;1659;51.470;6.770;2023-07-09T05:06:32;101526.53;;;23.83;55.87
3294;BME280;1659;51.470;6.770;2023-07-09T05:08:59;101534.19;;;23.90;55.86
3294;BME280;1659;51.470;6.770;2023-07-09T05:11:25;101535.53;;;23.98;55.82
3294;BME280;1659;51.470;6.770;2023-07-09T05:13:52;101540.34;;;24.07;55.48
3294;BME280;1659;51.470;6.770;2023-07-09T05:16:19;101539.75;;;24.16;55.42
3294;BME280;1659;51.470;6.770;2023-07-09T05:18:46;101533.78;;;24.25;55.01
3294;BME280;1659;51.470;6.770;2023-07-09T05:21:14;101531.50;;;24.32;54.87
3294;BME280;1659;51.470;6.770;2023-07-09T05:23:40;101535.44;;;24.41;54.83
3294;BME280;1659;51.470;6.770;2023-07-09T05:26:07;101532.94;;;24.52;54.90
3294;BME280;1659;51.470;6.770;2023-07-09T05:28:35;101532.78;;;24.95;53.85
3294;BME280;1659;51.470;6.770;2023-07-09T05:31:02;101527.00;;;25.41;52.33
3294;BME280;1659;51.470;6.770;2023-07-09T05:33:28;101529.69;;;25.80;51.70
3294;BME280;1659;51.470;6.770;2023-07-09T05:35:55;101527.44;;;26.12;50.86
3294;BME280;1659;51.470;6.770;2023-07-09T05:38:23;101529.38;;;26.47;50.21
3294;BME280;1659;51.470;6.770;2023-07-09T05:40:59;101532.78;;;26.75;49.67
3294;BME280;1659;51.470;6.770;2023-07-09T05:43:26;101532.63;;;26.89;49.26
3294;BME280;1659;51.470;6.770;2023-07-09T05:45:52;101524.69;;;27.10;48.92
3294;BME280;1659;51.470;6.770;2023-07-09T05:48:19;101518.47;;;27.33;48.56
3294;BME280;1659;51.470;6.770;2023-07-09T05:50:47;101518.13;;;27.48;48.18
3294;BME280;1659;51.470;6.770;2023-07-09T05:53:14;101520.03;;;27.59;48.15
3294;BME280;1659;51.470;6.770;2023-07-09T05:55:42;101521.03;;;27.81;47.79
3294;BME280;1659;51.470;6.770;2023-07-09T05:58:08;101528.09;;;27.95;47.46
3294;BME280;1659;51.470;6.770;2023-07-09T06:00:35;101530.47;;;27.99;47.14
3294;BME280;1659;51.470;6.770;2023-07-09T06:03:02;101533.50;;;28.06;47.04
3294;BME280;1659;51.470;6.770;2023-07-09T06:05:32;101538.34;;;28.14;46.84
3294;BME280;1659;51.470;6.770;2023-07-09T06:07:59;101533.13;;;28.22;46.70
3294;BME280;1659;51.470;6.770;2023-07-09T06:10:26;101528.66;;;28.43;46.29
3294;BME280;1659;51.470;6.770;2023-07-09T06:12:54;101530.09;;;28.70;45.87
3294;BME280;1659;51.470;6.770;2023-07-09T06:15:24;101531.41;;;28.87;45.49
3294;BME280;1659;51.470;6.770;2023-07-09T06:17:50;101529.88;;;29.27;44.54
3294;BME280;1659;51.470;6.770;2023-07-09T06:20:17;101535.59;;;29.45;44.58
3294;BME280;1659;51.470;6.770;2023-07-09T06:22:44;101532.59;;;29.69;44.08
3294;BME280;1659;51.470;6.770;2023-07-09T06:25:10;101538.91;;;29.90;43.88
3294;BME280;1659;51.470;6.770;2023-07-09T06:27:37;101535.66;;;30.06;43.49
3294;BME280;1659;51.470;6.770;2023-07-09T06:30:06;101545.63;;;30.27;42.74
3294;BME280;1659;51.470;6.770;2023-07-09T06:32:33;101538.19;;;30.29;43.06
3294;BME280;1659;51.470;6.770;2023-07-09T06:34:59;101533.94;;;30.46;42.50
3294;BME280;1659;51.470;6.770;2023-07-09T06:37:26;101542.47;;;30.82;42.24
3294;BME280;1659;51.470;6.770;2023-07-09T06:39:52;101543.78;;;31.17;41.26
3294;BME280;1659;51.470;6.770;2023-07-09T06:42:19;101541.63;;;31.30;41.42
3294;BME280;1659;51.470;6.770;2023-07-09T06:44:45;101543.34;;;31.51;40.61
3294;BME280;1659;51.470;6.770;2023-07-09T06:47:13;101539.25;;;31.74;40.67
3294;BME280;1659;51.470;6.770;2023-07-09T06:49:40;101545.25;;;31.88;40.03
3294;BME280;1659;51.470;6.770;2023-07-09T06:52:07;101544.53;;;31.86;40.18
3294;BME280;1659;51.470;6.770;2023-07-09T06:54:33;101551.06;;;32.12;39.73
3294;BME280;1659;51.470;6.770;2023-07-09T06:57:00;101546.59;;;32.39;39.44
3294;BME280;1659;51.470;6.770;2023-07-09T06:59:26;101547.09;;;32.52;39.27
3294;BME280;1659;51.470;6.770;2023-07-09T07:01:53;101551.81;;;32.60;38.92
3294;BME280;1659;51.470;6.770;2023-07-09T07:04:21;101541.53;;;32.72;38.83
3294;BME280;1659;51.470;6.770;2023-07-09T07:06:47;101546.78;;;33.01;38.38
3294;BME280;1659;51.470;6.770;2023-07-09T07:09:14;101546.13;;;33.07;38.40
3294;BME280;1659;51.470;6.770;2023-07-09T07:11:40;101558.50;;;33.11;38.14
3294;BME280;1659;51.470;6.770;2023-07-09T07:14:07;101543.00;;;33.02;38.07
3294;BME280;1659;51.470;6.770;2023-07-09T07:16:33;101540.88;;;33.32;37.80
3294;BME280;1659;51.470;6.770;2023-07-09T07:19:00;101547.88;;;33.53;37.07
3294;BME280;1659;51.470;6.770;2023-07-09T07:21:28;101542.41;;;33.53;37.18
3294;BME280;1659;51.470;6.770;2023-07-09T07:23:55;101539.56;;;33.62;37.10
3294;BME280;1659;51.470;6.770;2023-07-09T07:26:21;101532.88;;;33.65;36.89
3294;BME280;1659;51.470;6.770;2023-07-09T07:28:48;101541.97;;;33.65;37.22
3294;BME280;1659;51.470;6.770;2023-07-09T07:31:15;101529.91;;;33.76;36.74
3294;BME280;1659;51.470;6.770;2023-07-09T07:33:42;101527.81;;;33.70;36.61
3294;BME280;1659;51.470;6.770;2023-07-09T07:36:12;101524.97;;;33.80;36.41
3294;BME280;1659;51.470;6.770;2023-07-09T07:38:40;101518.13;;;33.84;36.50
3294;BME280;1659;51.470;6.770;2023-07-09T07:41:07;101529.34;;;33.99;36.09
3294;BME280;1659;51.470;6.770;2023-07-09T07:43:33;101532.94;;;33.99;36.27
3294;BME280;1659;51.470;6.770;2023-07-09T07:46:00;101526.41;;;34.00;36.04
3294;BME280;1659;51.470;6.770;2023-07-09T07:48:27;101523.16;;;34.31;35.76
3294;BME280;1659;51.470;6.770;2023-07-09T07:50:58;101532.16;;;34.66;35.13
3294;BME280;1659;51.470;6.770;2023-07-09T07:53:24;101531.34;;;34.82;35.27
3294;BME280;1659;51.470;6.770;2023-07-09T07:55:56;101535.66;;;35.09;34.67
3294;BME280;1659;51.470;6.770;2023-07-09T07:58:23;101529.31;;;35.25;34.51
3294;BME280;1659;51.470;6.770;2023-07-09T08:00:49;101525.53;;;35.34;34.28
3294;BME280;1659;51.470;6.770;2023-07-09T08:03:16;101527.09;;;35.37;34.20
3294;BME280;1659;51.470;6.770;2023-07-09T08:05:48;101523.91;;;35.65;34.37
3294;BME280;1659;51.470;6.770;2023-07-09T08:08:15;101524.56;;;35.91;33.85
3294;BME280;1659;51.470;6.770;2023-07-09T08:10:41;101527.41;;;36.06;33.85
3294;BME280;1659;51.470;6.770;2023-07-09T08:13:09;101515.03;;;36.10;33.76
3294;BME280;1659;51.470;6.770;2023-07-09T08:15:36;101510.53;;;36.49;33.15
3294;BME280;1659;51.470;6.770;2023-07-09T08:18:02;101520.91;;;36.93;32.46
3294;BME280;1659;51.470;6.770;2023-07-09T08:20:29;101511.03;;;36.99;32.42
3294;BME280;1659;51.470;6.770;2023-07-09T08:22:58;101519.91;;;36.94;32.26
3294;BME280;1659;51.470;6.770;2023-07-09T08:25:24;101506.38;;;36.99;32.33
3294;BME280;1659;51.470;6.770;2023-07-09T08:27:51;101512.41;;;37.26;31.98
3294;BME280;1659;51.470;6.770;2023-07-09T08:30:19;101509.28;;;37.59;31.81
3294;BME280;1659;51.470;6.770;2023-07-09T08:32:45;101508.25;;;37.90;31.52
3294;BME280;1659;51.470;6.770;2023-07-09T08:35:12;101503.75;;;38.04;30.97
3294;BME280;1659;51.470;6.770;2023-07-09T08:37:41;101505.97;;;38.08;31.10
3294;BME280;1659;51.470;6.770;2023-07-09T08:40:12;101501.63;;;38.35;30.90
3294;BME280;1659;51.470;6.770;2023-07-09T08:42:42;101503.47;;;38.28;30.68
3294;BME280;1659;51.470;6.770;2023-07-09T08:45:21;101504.72;;;38.11;30.89
3294;BME280;1659;51.470;6.770;2023-07-09T08:47:57;101495.91;;;37.86;31.26
3294;BME280;1659;51.470;6.770;2023-07-09T08:50:32;101503.13;;;38.17;30.85
3294;BME280;1659;51.470;6.770;2023-07-09T08:53:01;101509.59;;;38.24;30.56
3294;BME280;1659;51.470;6.770;2023-07-09T08:55:29;101496.63;;;38.24;30.29
3294;BME280;1659;51.470;6.770;2023-07-09T08:58:05;101503.31;;;38.51;30.14
3294;BME280;1659;51.470;6.770;2023-07-09T09:00:44;101498.41;;;38.68;29.85
3294;BME280;1659;51.470;6.770;2023-07-09T09:03:19;101491.19;;;38.52;29.79
3294;BME280;1659;51.470;6.770;2023-07-09T09:05:49;101501.09;;;38.83;29.50
3294;BME280;1659;51.470;6.770;2023-07-09T09:08:27;101501.28;;;38.82;29.26
3294;BME280;1659;51.470;6.770;2023-07-09T09:11:07;101502.28;;;38.74;29.13
3294;BME280;1659;51.470;6.770;2023-07-09T09:13:38;101498.31;;;38.62;29.20
3294;BME280;1659;51.470;6.770;2023-07-09T09:16:13;101488.13;;;38.84;29.00
3294;BME280;1659;51.470;6.770;2023-07-09T09:18:42;101483.97;;;38.95;28.93
3294;BME280;1659;51.470;6.770;2023-07-09T09:21:14;101497.81;;;39.23;28.58
3294;BME280;1659;51.470;6.770;2023-07-09T09:23:48;101486.03;;;39.36;28.59
3294;BME280;1659;51.470;6.770;2023-07-09T09:26:19;101482.66;;;39.75;28.17
3294;BME280;1659;51.470;6.770;2023-07-09T09:28:47;101479.66;;;39.70;27.96
3294;BME280;1659;51.470;6.770;2023-07-09T09:31:17;101481.97;;;39.67;27.64
3294;BME280;1659;51.470;6.770;2023-07-09T09:33:46;101481.94;;;40.01;27.65
3294;BME280;1659;51.470;6.770;2023-07-09T09:36:16;101474.06;;;40.05;27.41
3294;BME280;1659;51.470;6.770;2023-07-09T09:38:45;101474.56;;;39.74;27.42
3294;BME280;1659;51.470;6.770;2023-07-09T09:41:14;101474.09;;;39.63;27.25
3294;BME280;1659;51.470;6.770;2023-07-09T09:43:46;101475.47;;;39.46;27.10
3294;BME280;1659;51.470;6.770;2023-07-09T09:46:24;101472.41;;;39.34;27.23
3294;BME280;1659;51.470;6.770;2023-07-09T09:48:54;101461.78;;;39.73;26.67
3294;BME280;1659;51.470;6.770;2023-07-09T09:51:23;101473.63;;;39.95;26.57
3294;BME280;1659;51.470;6.770;2023-07-09T09:53:51;101465.53;;;39.93;26.67
3294;BME280;1659;51.470;6.770;2023-07-09T09:56:28;101474.91;;;39.92;26.70
3294;BME280;1659;51.470;6.770;2023-07-09T09:58:57;101473.03;;;39.64;26.51
3294;BME280;1659;51.470;6.770;2023-07-09T10:01:28;101477.72;;;39.36;26.43
3294;BME280;1659;51.470;6.770;2023-07-09T10:03:57;101464.00;;;39.49;26.37
3294;BME280;1659;51.470;6.770;2023-07-09T10:06:31;101464.34;;;39.74;26.02
3294;BME280;1659;51.470;6.770;2023-07-09T10:09:03;101459.09;;;39.86;25.84
3294;BME280;1659;51.470;6.770;2023-07-09T10:11:39;101470.94;;;39.73;26.07
3294;BME280;1659;51.470;6.770;2023-07-09T10:14:23;101463.25;;;39.62;25.55
3294;BME280;1659;51.470;6.770;2023-07-09T10:17:00;101457.69;;;39.62;25.79
3294;BME280;1659;51.470;6.770;2023-07-09T10:19:36;101445.72;;;39.48;25.46
3294;BME280;1659;51.470;6.770;2023-07-09T10:22:06;101449.59;;;39.25;25.46
3294;BME280;1659;51.470;6.770;2023-07-09T10:24:44;101436.50;;;39.13;25.27
3294;BME280;1659;51.470;6.770;2023-07-09T10:27:19;101437.09;;;39.36;25.02
3294;BME280;1659;51.470;6.770;2023-07-09T10:32:47;101431.97;;;39.68;24.81
3294;BME280;1659;51.470;6.770;2023-07-09T10:35:24;101445.09;;;39.94;24.78
3294;BME280;1659;51.470;6.770;2023-07-09T10:40:43;101438.66;;;40.42;24.24
3294;BME280;1659;51.470;6.770;2023-07-09T10:43:15;101445.69;;;40.65;24.08
3294;BME280;1659;51.470;6.770;2023-07-09T10:45:47;101448.25;;;40.66;23.98
3294;BME280;1659;51.470;6.770;2023-07-09T10:48:17;101448.69;;;40.63;24.14
3294;BME280;1659;51.470;6.770;2023-07-09T10:50:48;101451.03;;;40.73;23.73
3294;BME280;1659;51.470;6.770;2023-07-09T10:53:26;101446.56;;;40.72;23.54
3294;BME280;1659;51.470;6.770;2023-07-09T10:56:00;101442.72;;;40.60;23.70
3294;BME280;1659;51.470;6.770;2023-07-09T10:58:33;101448.28;;;40.86;23.53
3294;BME280;1659;51.470;6.770;2023-07-09T11:01:01;101443.59;;;40.93;23.31
3294;BME280;1659;51.470;6.770;2023-07-09T11:03:37;101436.28;;;41.32;23.27
3294;BME280;1659;51.470;6.770;2023-07-09T11:06:14;101434.50;;;41.72;22.85
3294;BME280;1659;51.470;6.770;2023-07-09T11:08:42;101442.94;;;41.31;22.98
3294;BME280;1659;51.470;6.770;2023-07-09T11:11:14;101435.50;;;40.99;23.59
3294;BME280;1659;51.470;6.770;2023-07-09T11:13:47;101429.72;;;40.60;23.66
3294;BME280;1659;51.470;6.770;2023-07-09T11:16:27;101418.16;;;40.30;23.47
3294;BME280;1659;51.470;6.770;2023-07-09T11:18:59;101413.44;;;40.24;23.86
3294;BME280;1659;51.470;6.770;2023-07-09T11:21:26;101397.63;;;39.97;23.96
3294;BME280;1659;51.470;6.770;2023-07-09T11:23:54;101396.78;;;39.97;23.79
3294;BME280;1659;51.470;6.770;2023-07-09T11:26:23;101394.09;;;39.75;23.82
3294;BME280;1659;51.470;6.770;2023-07-09T11:28:53;101408.75;;;39.62;23.99
3294;BME280;1659;51.470;6.770;2023-07-09T11:31:24;101385.13;;;39.67;24.09
3294;BME280;1659;51.470;6.770;2023-07-09T11:34:02;101383.59;;;39.99;24.03
3294;BME280;1659;51.470;6.770;2023-07-09T11:36:30;101379.56;;;40.15;23.84
3294;BME280;1659;51.470;6.770;2023-07-09T11:38:57;101376.66;;;40.63;23.61
3294;BME280;1659;51.470;6.770;2023-07-09T11:41:34;101374.50;;;41.05;22.98
3294;BME280;1659;51.470;6.770;2023-07-09T11:44:10;101386.19;;;41.27;23.28
3294;BME280;1659;51.470;6.770;2023-07-09T11:49:38;101382.59;;;40.73;23.20
3294;BME280;1659;51.470;6.770;2023-07-09T11:52:10;101378.34;;;40.77;23.50
3294;BME280;1659;51.470;6.770;2023-07-09T11:54:37;101386.03;;;40.75;23.69
3294;BME280;1659;51.470;6.770;2023-07-09T11:57:10;101380.69;;;40.54;23.72
3294;BME280;1659;51.470;6.770;2023-07-09T11:59:38;101376.88;;;40.55;23.75
3294;BME280;1659;51.470;6.770;2023-07-09T12:02:06;101385.56;;;40.78;23.85
3294;BME280;1659;51.470;6.770;2023-07-09T12:04:40;101393.69;;;40.53;23.88
3294;BME280;1659;51.470;6.770;2023-07-09T12:07:12;101391.13;;;40.52;24.08
3294;BME280;1659;51.470;6.770;2023-07-09T12:09:49;101387.06;;;40.74;23.53
3294;BME280;1659;51.470;6.770;2023-07-09T12:12:19;101385.81;;;40.84;23.41
3294;BME280;1659;51.470;6.770;2023-07-09T12:14:45;101385.81;;;40.90;23.39
3294;BME280;1659;51.470;6.770;2023-07-09T12:17:12;101396.22;;;41.08;23.09
3294;BME280;1659;51.470;6.770;2023-07-09T12:19:38;101399.66;;;40.84;23.13
3294;BME280;1659;51.470;6.770;2023-07-09T12:22:11;101394.97;;;40.57;23.30
3294;BME280;1659;51.470;6.770;2023-07-09T12:24:43;101396.47;;;40.53;23.68
3294;BME280;1659;51.470;6.770;2023-07-09T12:27:24;101387.94;;;40.42;23.38
3294;BME280;1659;51.470;6.770;2023-07-09T12:29:53;101385.34;;;40.33;23.60
3294;BME280;1659;51.470;6.770;2023-07-09T12:32:20;101384.28;;;40.34;23.45
3294;BME280;1659;51.470;6.770;2023-07-09T12:34:50;101373.19;;;40.28;23.37
3294;BME280;1659;51.470;6.770;2023-07-09T12:37:20;101376.97;;;40.00;23.35
3294;BME280;1659;51.470;6.770;2023-07-09T12:39:49;101373.47;;;39.71;23.78
3294;BME280;1659;51.470;6.770;2023-07-09T12:42:18;101370.63;;;39.51;23.79
3294;BME280;1659;51.470;6.770;2023-07-09T12:44:46;101363.25;;;39.72;23.84
3294;BME280;1659;51.470;6.770;2023-07-09T12:47:14;101362.31;;;40.06;23.28
3294;BME280;1659;51.470;6.770;2023-07-09T12:49:43;101363.00;;;40.42;23.43
3294;BME280;1659;51.470;6.770;2023-07-09T12:52:14;101359.38;;;40.61;22.84
3294;BME280;1659;51.470;6.770;2023-07-09T12:54:51;101353.19;;;40.72;22.92
3294;BME280;1659;51.470;6.770;2023-07-09T12:57:23;101350.22;;;40.54;23.35
3294;BME280;1659;51.470;6.770;2023-07-09T12:59:51;101349.34;;;40.27;23.73
3294;BME280;1659;51.470;6.770;2023-07-09T13:02:19;101340.25;;;39.71;24.19
3294;BME280;1659;51.470;6.770;2023-07-09T13:04:48;101344.31;;;39.27;24.42
3294;BME280;1659;51.470;6.770;2023-07-09T13:07:27;101331.50;;;38.84;24.86
3294;BME280;1659;51.470;6.770;2023-07-09T13:09:55;101333.06;;;38.44;25.39
3294;BME280;1659;51.470;6.770;2023-07-09T13:12:29;101335.72;;;38.30;25.52
3294;BME280;1659;51.470;6.770;2023-07-09T13:14:56;101333.13;;;38.07;25.75
3294;BME280;1659;51.470;6.770;2023-07-09T13:17:23;101329.06;;;37.82;26.10
3294;BME280;1659;51.470;6.770;2023-07-09T13:19:49;101333.28;;;37.63;26.06
3294;BME280;1659;51.470;6.770;2023-07-09T13:22:18;101342.22;;;37.50;26.74
3294;BME280;1659;51.470;6.770;2023-07-09T13:24:45;101332.94;;;37.36;26.59
3294;BME280;1659;51.470;6.770;2023-07-09T13:27:14;101314.50;;;37.21;26.89